createdAt,value
2022-08-03T00:00:42.986Z,57.81860352
2022-08-03T00:01:43.744Z,57.71484375
2022-08-03T00:02:44.525Z,57.11669922
2022-08-03T00:03:45.209Z,57.31811523
2022-08-03T00:04:45.956Z,57.31811523
2022-08-03T00:06:04.567Z,57.01904297
2022-08-03T00:06:47.744Z,57.22045898
2022-08-03T00:07:49.443Z,57.01904297
2022-08-03T00:08:49.925Z,57.01904297
2022-08-03T00:09:50.646Z,56.92138672
2022-08-03T00:10:51.501Z,56.7199707
2022-08-03T00:11:52.292Z,56.62231445
2022-08-03T00:12:52.998Z,56.5246582
2022-08-03T00:13:53.655Z,56.42089844
2022-08-03T00:14:54.301Z,56.62231445
2022-08-03T00:15:55.106Z,56.5246582
2022-08-03T00:16:56.657Z,56.5246582
2022-08-03T00:17:58.268Z,56.92138672
2022-08-03T00:19:00.622Z,57.01904297
2022-08-03T00:19:59.591Z,56.81762695
2022-08-03T00:21:01.338Z,56.7199707
2022-08-03T00:22:02.134Z,56.62231445
2022-08-03T00:23:02.921Z,56.7199707
2022-08-03T00:24:34.077Z,56.81762695
2022-08-03T00:25:34.799Z,57.01904297
2022-08-03T00:26:35.624Z,57.01904297
2022-08-03T00:27:37.330Z,57.41577148
2022-08-03T00:28:38.056Z,57.11669922
2022-08-03T00:29:59.729Z,57.01904297
2022-08-03T00:30:39.381Z,57.01904297
2022-08-03T00:31:52.554Z,56.92138672
2022-08-03T00:32:44.337Z,56.81762695
2022-08-03T00:33:57.925Z,57.11669922
2022-08-03T00:34:57.854Z,57.01904297
2022-08-03T00:35:50.964Z,56.92138672
2022-08-03T00:36:44.045Z,56.62231445
2022-08-03T00:37:45.769Z,56.7199707
2022-08-03T00:38:46.570Z,56.94580078
2022-08-03T00:39:47.247Z,57.1472168
2022-08-03T00:40:47.873Z,57.04956055
2022-08-03T00:41:48.712Z,56.81762695
2022-08-03T00:42:49.510Z,56.92138672
2022-08-03T00:43:50.309Z,57.41577148
2022-08-03T00:44:50.984Z,57.54394531
2022-08-03T00:45:51.651Z,57.41577148
2022-08-03T00:46:53.196Z,57.51953125
2022-08-03T00:47:54.783Z,57.51953125
2022-08-03T00:48:55.678Z,57.84301758
2022-08-03T00:49:57.193Z,57.71484375
2022-08-03T00:50:57.994Z,57.71484375
2022-08-03T00:51:58.704Z,57.44628906
2022-08-03T00:52:59.361Z,57.54394531
2022-08-03T00:54:00.010Z,57.84301758
2022-08-03T00:55:00.678Z,57.74536133
2022-08-03T00:56:01.313Z,57.74536133
2022-08-03T00:57:02.021Z,57.74536133
2022-08-03T00:58:03.728Z,58.34350586
2022-08-03T00:59:34.729Z,58.53881836
2022-08-03T01:00:35.464Z,58.8684082
2022-08-03T01:01:36.139Z,58.27026367
2022-08-03T01:02:36.823Z,58.17260742
2022-08-03T01:03:37.446Z,58.56933594
2022-08-03T01:04:38.725Z,58.76464844
2022-08-03T01:05:39.366Z,58.8684082
2022-08-03T01:06:40.013Z,59.0637207
2022-08-03T01:07:40.689Z,58.76464844
2022-08-03T01:08:42.078Z,58.8684082
2022-08-03T01:09:42.756Z,59.0637207
2022-08-03T01:10:43.421Z,58.96606445
2022-08-03T01:12:00.968Z,58.36791992
2022-08-03T01:12:44.784Z,58.47167969
2022-08-03T01:14:01.314Z,58.36791992
2022-08-03T01:14:47.098Z,58.8684082
2022-08-03T01:15:47.795Z,59.0637207
2022-08-03T01:16:48.482Z,59.0637207
2022-08-03T01:17:49.182Z,58.8684082
2022-08-03T01:18:50.606Z,58.76464844
2022-08-03T01:19:51.267Z,58.76464844
2022-08-03T01:20:51.975Z,58.8684082
2022-08-03T01:21:52.696Z,58.79516602
2022-08-03T01:22:54.156Z,59.19189453
2022-08-03T01:23:54.813Z,58.99658203
2022-08-03T01:24:55.487Z,59.09423828
2022-08-03T01:25:56.221Z,59.39331055
2022-08-03T01:26:57.005Z,59.59472656
2022-08-03T01:27:58.641Z,59.89379883
2022-08-03T01:28:59.375Z,59.4909668
2022-08-03T01:30:00.184Z,59.69238281
2022-08-03T01:31:00.853Z,59.59472656
2022-08-03T01:33:00.186Z,59.4909668
2022-08-03T01:33:33.491Z,59.19189453
2022-08-03T01:34:34.172Z,59.39331055
2022-08-03T01:35:38.243Z,59.2956543
2022-08-03T01:36:35.588Z,59.2956543
2022-08-03T01:37:38.769Z,59.19189453
2022-08-03T01:38:38.661Z,59.09423828
2022-08-03T01:39:39.322Z,59.19189453
2022-08-03T01:40:40.020Z,59.19189453
2022-08-03T01:41:40.725Z,59.39331055
2022-08-03T01:42:41.731Z,59.39331055
2022-08-03T01:44:28.057Z,59.39331055
2022-08-03T01:44:43.109Z,59.59472656
2022-08-03T01:45:43.843Z,59.69238281
2022-08-03T01:46:47.592Z,59.52148438
2022-08-03T01:47:45.919Z,59.72290039
2022-08-03T01:48:47.629Z,59.72290039
2022-08-03T01:49:48.392Z,59.72290039
2022-08-03T01:50:49.001Z,59.19189453
2022-08-03T01:51:58.401Z,59.12475586
2022-08-03T01:52:50.694Z,59.02099609
2022-08-03T01:53:51.142Z,58.72192383
2022-08-03T01:54:51.849Z,58.82568359
2022-08-03T01:55:52.523Z,59.02099609
2022-08-03T01:56:53.244Z,59.42382813
2022-08-03T01:58:05.300Z,59.32006836
2022-08-03T01:58:55.666Z,59.22241211
2022-08-03T01:59:56.353Z,59.32006836
2022-08-03T02:00:57.219Z,59.32006836
2022-08-03T02:02:15.650Z,59.32006836
2022-08-03T02:02:58.550Z,59.91821289
2022-08-03T02:04:00.606Z,60.41870117
2022-08-03T02:04:59.964Z,60.41870117
2022-08-03T02:07:00.507Z,60.02197266
2022-08-03T02:07:03.331Z,59.91821289
2022-08-03T02:08:33.754Z,60.21728516
2022-08-03T02:09:34.470Z,60.41870117
2022-08-03T02:10:36.005Z,60.02197266
2022-08-03T02:11:35.823Z,59.91821289
2022-08-03T02:12:36.501Z,59.82055664
2022-08-03T02:13:37.186Z,59.82055664
2022-08-03T02:14:37.915Z,59.72290039
2022-08-03T02:15:38.558Z,59.91821289
2022-08-03T02:16:39.263Z,59.91821289
2022-08-03T02:17:40.616Z,60.11962891
2022-08-03T02:18:42.289Z,60.41870117
2022-08-03T02:19:43.063Z,60.62011719
2022-08-03T02:20:44.599Z,60.62011719
2022-08-03T02:21:55.935Z,60.41870117
2022-08-03T02:22:46.031Z,60.21728516
2022-08-03T02:23:46.767Z,60.21728516
2022-08-03T02:24:50.994Z,60.11962891
2022-08-03T02:25:48.193Z,60.21728516
2022-08-03T02:26:48.911Z,60.21728516
2022-08-03T02:27:49.619Z,60.44921875
2022-08-03T02:28:51.271Z,60.65063477
2022-08-03T02:29:52.039Z,60.74829102
2022-08-03T02:30:53.998Z,60.21728516
2022-08-03T02:31:53.443Z,59.94873047
2022-08-03T02:32:54.168Z,60.546875
2022-08-03T02:33:54.885Z,60.74829102
2022-08-03T02:34:55.607Z,60.74829102
2022-08-03T02:35:56.253Z,60.84594727
2022-08-03T02:36:57.006Z,61.2487793
2022-08-03T02:37:57.715Z,61.2487793
2022-08-03T02:38:59.279Z,60.94970703
2022-08-03T02:40:00.017Z,61.14501953
2022-08-03T02:41:00.696Z,60.94970703
2022-08-03T02:42:01.866Z,60.65063477
2022-08-03T02:43:39.244Z,60.84594727
2022-08-03T02:44:33.601Z,60.74829102
2022-08-03T02:45:34.368Z,60.65063477
2022-08-03T02:46:35.073Z,60.65063477
2022-08-03T02:47:53.277Z,61.04736328
2022-08-03T02:48:38.275Z,61.2487793
2022-08-03T02:49:51.374Z,61.2487793
2022-08-03T02:50:39.739Z,61.14501953
2022-08-03T02:51:40.404Z,60.84594727
2022-08-03T02:52:41.136Z,60.546875
2022-08-03T02:53:41.983Z,60.546875
2022-08-03T02:54:42.691Z,60.65063477
2022-08-03T02:55:45.822Z,60.84594727
2022-08-03T02:56:44.125Z,61.07788086
2022-08-03T02:57:44.836Z,61.07788086
2022-08-03T02:58:46.288Z,60.97412109
2022-08-03T02:59:46.988Z,61.07788086
2022-08-03T03:00:47.769Z,61.17553711
2022-08-03T03:01:48.430Z,61.27319336
2022-08-03T03:02:49.194Z,61.17553711
2022-08-03T03:03:49.939Z,61.14501953
2022-08-03T03:05:53.197Z,61.14501953
2022-08-03T03:05:55.517Z,61.04736328
2022-08-03T03:06:52.072Z,60.94970703
2022-08-03T03:07:53.253Z,60.84594727
2022-08-03T03:08:59.295Z,60.84594727
2022-08-03T03:09:55.004Z,60.94970703
2022-08-03T03:10:55.890Z,60.94970703
2022-08-03T03:11:56.472Z,60.74829102
2022-08-03T03:12:57.249Z,60.94970703
2022-08-03T03:13:58.528Z,60.65063477
2022-08-03T03:14:59.767Z,60.44921875
2022-08-03T03:16:00.505Z,60.546875
2022-08-03T03:17:01.669Z,60.57739258
2022-08-03T03:18:33.513Z,60.57739258
2022-08-03T03:19:35.168Z,60.87646484
2022-08-03T03:20:35.862Z,61.17553711
2022-08-03T03:21:36.567Z,61.07788086
2022-08-03T03:22:38.162Z,61.17553711
2022-08-03T03:23:38.873Z,61.37695313
2022-08-03T03:24:39.575Z,61.47460938
2022-08-03T03:25:40.256Z,61.57226563
2022-08-03T03:26:42.481Z,61.37695313
2022-08-03T03:27:41.922Z,61.47460938
2022-08-03T03:28:42.623Z,61.37695313
2022-08-03T03:29:44.221Z,61.57226563
2022-08-03T03:30:44.884Z,61.87133789
2022-08-03T03:31:45.588Z,61.87133789
2022-08-03T03:32:46.304Z,61.87133789
2022-08-03T03:33:47.039Z,62.07275391
2022-08-03T03:34:47.748Z,61.77368164
2022-08-03T03:35:48.453Z,61.47460938
2022-08-03T03:36:49.179Z,61.70654297
2022-08-03T03:37:50.023Z,61.90185547
2022-08-03T03:38:51.816Z,62.00561523
2022-08-03T03:39:52.608Z,62.10327148
2022-08-03T03:40:54.214Z,62.20092773
2022-08-03T03:41:54.934Z,62.5
2022-08-03T03:42:55.577Z,62.80517578
2022-08-03T03:43:56.371Z,62.93334961
2022-08-03T03:44:57.825Z,62.82958984
2022-08-03T03:45:58.642Z,62.93334961
2022-08-03T03:46:59.410Z,62.93334961
2022-08-03T03:48:00.136Z,62.63427734
2022-08-03T03:49:01.919Z,62.23144531
2022-08-03T03:50:33.105Z,62.43286133
2022-08-03T03:51:33.919Z,63.13476563
2022-08-03T03:52:35.331Z,63.23242188
2022-08-03T03:53:35.991Z,62.63427734
2022-08-03T03:54:36.764Z,62.43286133
2022-08-03T03:55:37.588Z,62.63427734
2022-08-03T03:56:38.402Z,62.73193359
2022-08-03T03:57:39.125Z,62.73193359
2022-08-03T03:58:39.781Z,62.73193359
2022-08-03T03:59:41.237Z,63.03100586
2022-08-03T04:00:42.259Z,62.82958984
2022-08-03T04:01:42.913Z,62.93334961
2022-08-03T04:02:43.740Z,62.60375977
2022-08-03T04:03:44.456Z,62.70141602
2022-08-03T04:04:45.134Z,62.80517578
2022-08-03T04:05:46.079Z,62.40234375
2022-08-03T04:06:46.824Z,62.20092773
2022-08-03T04:07:47.625Z,62.20092773
2022-08-03T04:08:49.388Z,62.3046875
2022-08-03T04:09:49.747Z,62.60375977
2022-08-03T04:10:50.607Z,62.70141602
2022-08-03T04:11:51.444Z,61.80419922
2022-08-03T04:12:52.288Z,61.90185547
2022-08-03T04:13:52.985Z,61.90185547
2022-08-03T04:14:53.703Z,61.90185547
2022-08-03T04:15:54.510Z,61.90185547
2022-08-03T04:16:55.314Z,62.00561523
2022-08-03T04:17:56.864Z,61.90185547
2022-08-03T04:18:57.586Z,61.90185547
2022-08-03T04:19:59.159Z,61.90185547
2022-08-03T04:21:00.003Z,62.00561523
2022-08-03T04:22:32.327Z,62.10327148
2022-08-03T04:23:33.107Z,62.20092773
2022-08-03T04:24:33.801Z,62.3046875
2022-08-03T04:25:34.566Z,62.20092773
2022-08-03T04:26:35.384Z,62.20092773
2022-08-03T04:27:36.252Z,61.90185547
2022-08-03T04:28:37.106Z,62.00561523
2022-08-03T04:29:38.619Z,62.10327148
2022-08-03T04:30:39.023Z,62.20092773
2022-08-03T04:31:39.861Z,62.40234375
2022-08-03T04:32:45.467Z,62.20092773
2022-08-03T04:33:42.398Z,62.10327148
2022-08-03T04:34:43.060Z,62.20092773
2022-08-03T04:35:58.554Z,62.20092773
2022-08-03T04:36:44.611Z,62.20092773
2022-08-03T04:37:45.464Z,62.20092773
2022-08-03T04:38:46.301Z,61.80419922
2022-08-03T04:39:47.676Z,61.50512695
2022-08-03T04:40:48.404Z,61.6027832
2022-08-03T04:42:08.297Z,62.00561523
2022-08-03T04:42:50.836Z,62.23144531
2022-08-03T04:43:51.696Z,62.53051758
2022-08-03T04:44:52.398Z,62.63427734
2022-08-03T04:45:53.091Z,62.73193359
2022-08-03T04:46:53.854Z,63.03100586
2022-08-03T04:47:55.335Z,62.93334961
2022-08-03T04:48:56.184Z,63.23242188
2022-08-03T04:49:57.755Z,62.53051758
2022-08-03T04:50:59.157Z,62.43286133
2022-08-03T04:51:59.897Z,62.53051758
2022-08-03T04:53:31.232Z,62.63427734
2022-08-03T04:54:32.051Z,62.86010742
2022-08-03T04:55:32.797Z,62.96386719
2022-08-03T04:56:33.525Z,62.86010742
2022-08-03T04:57:35.252Z,62.96386719
2022-08-03T04:58:36.091Z,62.96386719
2022-08-03T04:59:39.147Z,63.06152344
2022-08-03T05:00:38.568Z,63.1652832
2022-08-03T05:01:39.346Z,63.26293945
2022-08-03T05:02:40.047Z,63.3605957
2022-08-03T05:03:40.854Z,63.3605957
2022-08-03T05:04:41.944Z,63.56201172
2022-08-03T05:05:50.261Z,63.46435547
2022-08-03T05:06:48.407Z,63.46435547
2022-08-03T05:07:44.150Z,63.86108398
2022-08-03T05:08:46.834Z,63.65966797
2022-08-03T05:09:50.402Z,63.46435547
2022-08-03T05:10:47.117Z,63.33007813
2022-08-03T05:11:47.804Z,63.03100586
2022-08-03T05:12:48.572Z,62.93334961
2022-08-03T05:13:49.424Z,63.03100586
2022-08-03T05:14:50.295Z,63.43383789
2022-08-03T05:15:51.686Z,63.53149414
2022-08-03T05:16:52.411Z,63.59863281
2022-08-03T05:17:53.189Z,63.50097656
2022-08-03T05:18:54.003Z,63.10424805
2022-08-03T05:19:55.402Z,63.10424805
2022-08-03T05:20:56.136Z,63.00048828
2022-08-03T05:21:56.868Z,63.00048828
2022-08-03T05:22:58.217Z,62.57324219
2022-08-03T05:23:59.029Z,62.7746582
2022-08-03T05:25:00.323Z,62.9699707
2022-08-03T05:26:31.484Z,62.9699707
2022-08-03T05:27:32.130Z,62.9699707
2022-08-03T05:28:32.871Z,62.87231445
2022-08-03T05:29:33.686Z,62.87231445
2022-08-03T05:30:35.270Z,62.7746582
2022-08-03T05:31:35.944Z,62.7746582
2022-08-03T05:32:36.660Z,62.9699707
2022-08-03T05:33:37.406Z,63.07373047
2022-08-03T05:34:38.221Z,62.67089844
2022-08-03T05:36:00.984Z,62.57324219
2022-08-03T05:36:39.807Z,62.47558594
2022-08-03T05:37:40.498Z,62.7746582
2022-08-03T05:38:41.328Z,62.64038086
2022-08-03T05:39:42.849Z,62.24365234
2022-08-03T05:40:46.980Z,62.24365234
2022-08-03T05:41:44.507Z,62.34130859
2022-08-03T05:42:45.804Z,62.44506836
2022-08-03T05:43:46.590Z,62.34130859
2022-08-03T05:44:47.440Z,62.34130859
2022-08-03T05:45:48.279Z,62.24365234
2022-08-03T05:46:48.991Z,62.44506836
2022-08-03T05:47:50.701Z,62.54272461
2022-08-03T05:48:51.456Z,62.34130859
2022-08-03T05:49:52.873Z,62.44506836
2022-08-03T05:50:53.739Z,62.64038086
2022-08-03T05:52:00.388Z,62.64038086
2022-08-03T05:52:56.190Z,62.54272461
2022-08-03T05:53:57.043Z,62.44506836
2022-08-03T05:54:57.927Z,62.44506836
2022-08-03T05:56:03.618Z,62.54272461
2022-08-03T05:56:59.967Z,62.44506836
2022-08-03T05:58:31.027Z,62.21313477
2022-08-03T05:59:38.145Z,62.41455078
2022-08-03T06:00:33.313Z,62.41455078
2022-08-03T06:01:34.284Z,62.71362305
2022-08-03T06:02:34.983Z,62.8112793
2022-08-03T06:03:35.700Z,62.8112793
2022-08-03T06:04:36.468Z,62.8112793
2022-08-03T06:05:37.281Z,62.90893555
2022-08-03T06:06:38.167Z,62.51220703
2022-08-03T06:07:38.956Z,62.31079102
2022-08-03T06:08:39.657Z,62.31079102
2022-08-03T06:10:34.126Z,62.11547852
2022-08-03T06:10:42.075Z,62.11547852
2022-08-03T06:11:42.942Z,62.08496094
2022-08-03T06:12:43.650Z,61.98730469
2022-08-03T06:13:44.412Z,61.98730469
2022-08-03T06:14:45.138Z,62.08496094
2022-08-03T06:15:46.859Z,62.3840332
2022-08-03T06:16:47.741Z,62.28637695
2022-08-03T06:17:48.441Z,61.68823242
2022-08-03T06:18:49.134Z,61.48681641
2022-08-03T06:19:49.832Z,61.78588867
2022-08-03T06:20:51.261Z,61.48681641
2022-08-03T06:21:52.143Z,61.38916016
2022-08-03T06:23:01.038Z,61.35864258
2022-08-03T06:23:55.641Z,61.15722656
2022-08-03T06:24:55.269Z,61.45629883
2022-08-03T06:25:56.100Z,61.45629883
2022-08-03T06:26:57.004Z,61.45629883
2022-08-03T06:27:58.767Z,61.25488281
2022-08-03T06:29:30.172Z,61.25488281
2022-08-03T06:30:31.880Z,60.8581543
2022-08-03T06:31:33.809Z,60.55908203
2022-08-03T06:32:33.628Z,60.55908203
2022-08-03T06:34:30.443Z,60.55908203
2022-08-03T06:34:35.763Z,60.6628418
2022-08-03T06:35:35.801Z,60.96191406
2022-08-03T06:36:36.639Z,60.8581543
2022-08-03T06:37:37.461Z,60.76049805
2022-08-03T06:38:38.192Z,60.2355957
2022-08-03T06:39:38.916Z,60.2355957
2022-08-03T06:40:40.218Z,60.4309082
2022-08-03T06:41:44.803Z,60.53466797
2022-08-03T06:42:41.696Z,60.63232422
2022-08-03T06:44:03.532Z,60.53466797
2022-08-03T06:44:43.104Z,60.63232422
2022-08-03T06:45:43.849Z,60.33325195
2022-08-03T06:46:44.655Z,59.63745117
2022-08-03T06:47:45.561Z,59.83276367
2022-08-03T06:48:46.855Z,59.93652344
2022-08-03T06:50:12.257Z,60.53466797
2022-08-03T06:50:49.178Z,60.53466797
2022-08-03T06:52:04.539Z,60.33325195
2022-08-03T06:52:50.832Z,60.53466797
2022-08-03T06:53:51.596Z,60.63232422
2022-08-03T06:54:52.316Z,60.53466797
2022-08-03T06:55:54.637Z,60.63232422
2022-08-03T06:56:53.903Z,60.2355957
2022-08-03T06:57:54.790Z,60.10742188
2022-08-03T06:58:55.554Z,60.20507813
2022-08-03T07:00:08.499Z,60.30273438
2022-08-03T07:00:57.726Z,60.30273438
2022-08-03T07:01:58.475Z,59.60693359
2022-08-03T07:03:29.920Z,59.60693359
2022-08-03T07:04:30.643Z,59.70458984
2022-08-03T07:05:31.353Z,60.00366211
2022-08-03T07:06:32.084Z,59.80834961
2022-08-03T07:07:32.911Z,59.70458984
2022-08-03T07:08:34.536Z,59.70458984
2022-08-03T07:09:34.496Z,59.60693359
2022-08-03T07:10:35.858Z,59.90600586
2022-08-03T07:11:36.587Z,59.90600586
2022-08-03T07:12:37.419Z,59.90600586
2022-08-03T07:13:38.266Z,60.0769043
2022-08-03T07:14:38.974Z,60.57128906
2022-08-03T07:15:56.186Z,60.77270508
2022-08-03T07:16:40.501Z,60.2722168
2022-08-03T07:17:41.322Z,59.77783203
2022-08-03T07:18:42.949Z,60.0769043
2022-08-03T07:19:43.731Z,60.17456055
2022-08-03T07:20:45.363Z,59.77783203
2022-08-03T07:21:46.095Z,59.77783203
2022-08-03T07:22:47.867Z,60.0769043
2022-08-03T07:23:48.697Z,59.97924805
2022-08-03T07:24:49.482Z,59.97924805
2022-08-03T07:25:50.222Z,59.87548828
2022-08-03T07:26:50.933Z,59.47875977
2022-08-03T07:27:51.915Z,59.55200195
2022-08-03T07:28:52.612Z,59.74731445
2022-08-03T07:29:53.374Z,59.55200195
2022-08-03T07:30:54.847Z,59.6496582
2022-08-03T07:31:55.588Z,59.55200195
2022-08-03T07:32:56.444Z,59.6496582
2022-08-03T07:33:57.338Z,59.55200195
2022-08-03T07:35:29.395Z,59.25292969
2022-08-03T07:36:30.114Z,58.55712891
2022-08-03T07:37:30.827Z,58.55712891
2022-08-03T07:38:31.713Z,58.85620117
2022-08-03T07:39:32.533Z,58.75244141
2022-08-03T07:40:33.338Z,58.35571289
2022-08-03T07:41:34.809Z,58.16040039
2022-08-03T07:42:35.482Z,58.33129883
2022-08-03T07:43:36.273Z,58.22753906
2022-08-03T07:44:37.122Z,57.83081055
2022-08-03T07:45:37.920Z,57.7331543
2022-08-03T07:46:38.642Z,57.33642578
2022-08-03T07:47:39.323Z,57.63549805
2022-08-03T07:48:40.915Z,57.63549805
2022-08-03T07:49:42.098Z,57.7331543
2022-08-03T07:50:43.411Z,57.7331543
2022-08-03T07:51:44.147Z,57.7331543
2022-08-03T07:52:45.846Z,57.7331543
2022-08-03T07:53:48.036Z,58.59985352
2022-08-03T07:54:47.513Z,58.00170898
2022-08-03T07:55:48.290Z,58.30078125
2022-08-03T07:56:48.981Z,57.80639648
2022-08-03T07:57:50.338Z,57.90405273
2022-08-03T07:58:51.159Z,57.80639648
2022-08-03T07:59:59.574Z,57.90405273
2022-08-03T08:00:53.612Z,57.90405273
2022-08-03T08:01:54.165Z,58.203125
2022-08-03T08:02:54.933Z,58.69750977
2022-08-03T08:03:55.748Z,58.50219727
2022-08-03T08:04:56.671Z,58.203125
2022-08-03T08:05:57.449Z,58.09936523
2022-08-03T08:07:28.911Z,57.80639648
2022-08-03T08:08:29.626Z,57.80639648
2022-08-03T08:09:30.428Z,57.77587891
2022-08-03T08:10:31.274Z,58.17260742
2022-08-03T08:11:34.869Z,58.37402344
2022-08-03T08:12:33.536Z,58.27026367
2022-08-03T08:13:34.255Z,58.47167969
2022-08-03T08:14:35.113Z,58.47167969
2022-08-03T08:15:35.983Z,58.66699219
2022-08-03T08:16:37.312Z,58.66699219
2022-08-03T08:17:38.055Z,58.89892578
2022-08-03T08:18:38.832Z,58.99658203
2022-08-03T08:19:42.765Z,58.89892578
2022-08-03T08:20:41.391Z,58.96606445
2022-08-03T08:21:53.174Z,59.16748047
2022-08-03T08:22:43.545Z,58.96606445
2022-08-03T08:23:48.635Z,58.47167969
2022-08-03T08:24:46.097Z,58.66699219
2022-08-03T08:25:46.978Z,58.56933594
2022-08-03T08:26:48.387Z,58.17260742
2022-08-03T08:28:29.707Z,58.37402344
2022-08-03T08:28:49.947Z,58.66699219
2022-08-03T08:29:55.183Z,58.07495117
2022-08-03T08:30:52.429Z,58.37402344
2022-08-03T08:31:53.180Z,58.27026367
2022-08-03T08:32:54.738Z,57.97729492
2022-08-03T08:34:04.414Z,58.07495117
2022-08-03T08:34:56.312Z,57.97729492
2022-08-03T08:35:57.286Z,57.18383789
2022-08-03T08:37:28.633Z,57.37915039
2022-08-03T08:38:29.366Z,57.94677734
2022-08-03T08:39:30.166Z,57.94677734
2022-08-03T08:40:30.975Z,57.55004883
2022-08-03T08:41:32.468Z,57.25097656
2022-08-03T08:42:33.075Z,57.25097656
2022-08-03T08:43:33.821Z,57.55004883
2022-08-03T08:44:34.599Z,57.15332031
2022-08-03T08:45:35.501Z,57.15332031
2022-08-03T08:46:36.950Z,57.05566406
2022-08-03T08:47:50.920Z,56.26220703
2022-08-03T08:48:38.489Z,56.26220703
2022-08-03T08:49:39.428Z,56.06079102
2022-08-03T08:50:40.801Z,56.45751953
2022-08-03T08:51:50.547Z,57.05566406
2022-08-03T08:52:43.155Z,56.45751953
2022-08-03T08:53:43.922Z,56.9519043
2022-08-03T08:54:44.668Z,56.9519043
2022-08-03T08:55:59.571Z,56.85424805
2022-08-03T08:56:46.204Z,56.45751953
2022-08-03T08:57:46.908Z,56.55517578
2022-08-03T08:58:47.643Z,56.45751953
2022-08-03T08:59:49.738Z,56.55517578
2022-08-03T09:00:49.227Z,56.55517578
2022-08-03T09:01:50.886Z,56.45751953
2022-08-03T09:02:51.735Z,56.65893555
2022-08-03T09:03:52.483Z,56.55517578
2022-08-03T09:04:53.293Z,56.35986328
2022-08-03T09:05:56.140Z,56.45751953
2022-08-03T09:07:17.980Z,56.45751953
2022-08-03T09:07:55.592Z,56.23168945
2022-08-03T09:08:56.309Z,56.23168945
2022-08-03T09:10:11.397Z,55.9387207
2022-08-03T09:12:00.885Z,55.63964844
2022-08-03T09:12:42.050Z,55.24291992
2022-08-03T09:13:31.026Z,55.24291992
2022-08-03T09:14:36.562Z,55.24291992
2022-08-03T09:15:32.561Z,55.24291992
2022-08-03T09:16:33.419Z,55.14526367
2022-08-03T09:17:34.859Z,55.14526367
2022-08-03T09:18:35.682Z,54.35180664
2022-08-03T09:19:36.418Z,54.84619141
2022-08-03T09:20:37.805Z,54.64477539
2022-08-03T09:21:39.435Z,55.04150391
2022-08-03T09:22:40.303Z,54.84619141
2022-08-03T09:24:00.485Z,54.64477539
2022-08-03T09:24:43.416Z,54.94384766
2022-08-03T09:25:42.742Z,55.31616211
2022-08-03T09:26:43.530Z,54.91943359
2022-08-03T09:27:44.386Z,55.11474609
2022-08-03T09:29:02.042Z,55.01708984
2022-08-03T09:29:45.798Z,55.11474609
2022-08-03T09:30:46.548Z,54.81567383
2022-08-03T09:31:47.965Z,54.81567383
2022-08-03T09:32:48.847Z,54.22363281
2022-08-03T09:33:50.268Z,54.22363281
2022-08-03T09:34:54.192Z,54.52270508
2022-08-03T09:35:54.522Z,54.71801758
2022-08-03T09:36:52.654Z,54.81567383
2022-08-03T09:38:12.068Z,54.69360352
2022-08-03T09:38:54.341Z,54.4921875
2022-08-03T09:39:55.231Z,54.296875
2022-08-03T09:40:59.472Z,54.39453125
2022-08-03T09:42:28.270Z,54.19921875
2022-08-03T09:43:29.117Z,53.99780273
2022-08-03T09:44:29.848Z,53.99780273
2022-08-03T09:45:30.593Z,54.09545898
2022-08-03T09:46:31.443Z,54.09545898
2022-08-03T09:47:32.265Z,54.296875
2022-08-03T09:48:33.125Z,54.09545898
2022-08-03T09:49:34.489Z,53.90014648
2022-08-03T09:50:35.148Z,52.70996094
2022-08-03T09:52:38.476Z,52.21557617
2022-08-03T09:52:49.799Z,52.31323242
2022-08-03T09:53:38.600Z,52.09350586
2022-08-03T09:54:39.289Z,51.98974609
2022-08-03T09:56:34.556Z,52.28881836
2022-08-03T09:56:41.711Z,52.19116211
2022-08-03T09:57:43.445Z,51.89208984
2022-08-03T09:58:44.285Z,52.19116211
2022-08-03T09:59:45.116Z,50.70800781
2022-08-03T10:00:45.998Z,50.5065918
2022-08-03T10:01:47.523Z,51.00097656
2022-08-03T10:02:48.254Z,51.30004883
2022-08-03T10:04:03.303Z,51.79443359
2022-08-03T10:04:49.915Z,51.39770508
2022-08-03T10:05:50.647Z,51.49536133
2022-08-03T10:06:51.501Z,51.39770508
2022-08-03T10:07:52.248Z,51.09863281
2022-08-03T10:08:53.171Z,51.09863281
2022-08-03T10:09:53.904Z,50.68359375
2022-08-03T10:10:54.616Z,50.87890625
2022-08-03T10:11:55.903Z,50.78125
2022-08-03T10:13:27.885Z,50.78125
2022-08-03T10:14:28.418Z,50.78125
2022-08-03T10:16:23.486Z,51.56860352
2022-08-03T10:16:29.919Z,51.07421875
2022-08-03T10:17:30.769Z,50.68359375
2022-08-03T10:18:31.617Z,50.48217773
2022-08-03T10:19:33.450Z,50.78125
2022-08-03T10:20:34.212Z,50.68359375
2022-08-03T10:21:35.013Z,51.07421875
2022-08-03T10:22:36.268Z,50.78125
2022-08-03T10:23:37.041Z,50.18310547
2022-08-03T10:24:37.902Z,50.48217773
2022-08-03T10:25:38.612Z,49.98779297
2022-08-03T10:26:39.357Z,49.59106445
2022-08-03T10:27:40.224Z,49.86572266
2022-08-03T10:28:44.999Z,50.28686523
2022-08-03T10:29:42.102Z,49.66430664
2022-08-03T10:30:42.824Z,49.46899414
2022-08-03T10:31:54.761Z,48.38256836
2022-08-03T10:32:45.289Z,48.18115234
2022-08-03T10:33:49.710Z,48.57788086
2022-08-03T10:34:46.832Z,48.57788086
2022-08-03T10:35:47.571Z,48.77319336
2022-08-03T10:36:48.356Z,48.87695313
2022-08-03T10:37:56.504Z,49.46899414
2022-08-03T10:38:50.059Z,49.66430664
2022-08-03T10:39:50.911Z,49.96337891
2022-08-03T10:40:55.810Z,50.36010742
2022-08-03T10:41:53.448Z,50.06103516
2022-08-03T10:42:54.298Z,48.77319336
2022-08-03T10:43:55.294Z,48.77319336
2022-08-03T10:44:56.481Z,48.87695313
2022-08-03T10:46:27.663Z,48.85253906
2022-08-03T10:47:28.891Z,48.65112305
2022-08-03T10:48:29.710Z,48.85253906
2022-08-03T10:49:34.501Z,49.14550781
2022-08-03T10:50:32.342Z,49.04785156
2022-08-03T10:51:33.082Z,49.34692383
2022-08-03T10:52:39.532Z,48.95019531
2022-08-03T10:53:35.632Z,48.85253906
2022-08-03T10:54:36.433Z,48.85253906
2022-08-03T10:55:37.241Z,48.65112305
2022-08-03T10:56:47.989Z,48.75488281
2022-08-03T10:57:38.730Z,47.46704102
2022-08-03T10:58:53.460Z,47.56469727
2022-08-03T10:59:40.487Z,46.67358398
2022-08-03T11:00:41.461Z,46.94824219
2022-08-03T11:02:00.132Z,47.1496582
2022-08-03T11:02:43.833Z,46.75292969
2022-08-03T11:03:44.624Z,46.65527344
2022-08-03T11:04:45.448Z,47.1496582
2022-08-03T11:05:46.304Z,47.44262695
2022-08-03T11:06:47.019Z,47.64404297
2022-08-03T11:07:47.692Z,47.83935547
2022-08-03T11:08:48.550Z,47.83935547
2022-08-03T11:09:49.370Z,48.03466797
2022-08-03T11:10:50.220Z,47.93701172